sensor_id;sensor_type;location;lat;lon;timestamp;pressure;altitude;pressure_sealevel;temperature;humidity
58622;BME280;44389;51.578;5.456;2023-02-28T00:00:05;103005.88;;;-2.49;100.00
58622;BME280;44389;51.578;5.456;2023-02-28T00:02:36;103010.03;;;-2.49;100.00
58622;BME280;44389;51.578;5.456;2023-02-28T00:05:01;103008.03;;;-2.59;100.00
58622;BME280;44389;51.578;5.456;2023-02-28T00:07:29;103006.97;;;-2.54;100.00
58622;BME280;44389;51.578;5.456;2023-02-28T00:09:55;103006.78;;;-2.62;100.00
58622;BME280;44389;51.578;5.456;2023-02-28T00:12:20;103006.25;;;-2.60;100.00
58622;BME280;44389;51.578;5.456;2023-02-28T00:14:45;103009.31;;;-2.62;100.00
58622;BME280;44389;51.578;5.456;2023-02-28T00:17:11;103010.75;;;-2.57;100.00
58622;BME280;44389;51.578;5.456;2023-02-28T00:19:36;103007.50;;;-2.63;100.00
58622;BME280;44389;51.578;5.456;2023-02-28T00:22:01;103005.69;;;-2.72;100.00
58622;BME280;44389;51.578;5.456;2023-02-28T00:24:26;103001.72;;;-2.77;100.00
58622;BME280;44389;51.578;5.456;2023-02-28T00:26:52;103004.97;;;-2.78;100.00
58622;BME280;44389;51.578;5.456;2023-02-28T00:29:17;103003.69;;;-2.82;100.00
58622;BME280;44389;51.578;5.456;2023-02-28T00:31:42;103006.75;;;-2.84;100.00
58622;BME280;44389;51.578;5.456;2023-02-28T00:34:08;102999.19;;;-2.84;100.00
58622;BME280;44389;51.578;5.456;2023-02-28T00:36:33;103000.66;;;-2.86;100.00
58622;BME280;44389;51.578;5.456;2023-02-28T00:38:58;102997.94;;;-2.88;100.00
58622;BME280;44389;51.578;5.456;2023-02-28T00:41:23;103005.31;;;-2.89;100.00
58622;BME280;44389;51.578;5.456;2023-02-28T00:43:49;103002.09;;;-2.81;100.00
58622;BME280;44389;51.578;5.456;2023-02-28T00:46:14;102998.13;;;-2.86;100.00
58622;BME280;44389;51.578;5.456;2023-02-28T00:48:39;102995.97;;;-2.90;100.00
58622;BME280;44389;51.578;5.456;2023-02-28T00:51:05;102999.19;;;-2.99;100.00
58622;BME280;44389;51.578;5.456;2023-02-28T00:53:30;103002.41;;;-3.00;100.00
58622;BME280;44389;51.578;5.456;2023-02-28T00:55:57;102995.22;;;-2.96;100.00
58622;BME280;44389;51.578;5.456;2023-02-28T00:58:23;102999.19;;;-2.99;100.00
58622;BME280;44389;51.578;5.456;2023-02-28T01:00:48;102999.56;;;-2.95;100.00
58622;BME280;44389;51.578;5.456;2023-02-28T01:03:18;103003.16;;;-2.93;100.00
58622;BME280;44389;51.578;5.456;2023-02-28T01:05:43;103014.72;;;-2.95;100.00
58622;BME280;44389;51.578;5.456;2023-02-28T01:08:09;103006.78;;;-2.91;100.00
58622;BME280;44389;51.578;5.456;2023-02-28T01:10:34;103006.78;;;-2.91;100.00
58622;BME280;44389;51.578;5.456;2023-02-28T01:13:01;103015.41;;;-2.89;100.00
58622;BME280;44389;51.578;5.456;2023-02-28T01:15:26;103018.09;;;-3.09;100.00
58622;BME280;44389;51.578;5.456;2023-02-28T01:17:52;103013.59;;;-3.05;100.00
58622;BME280;44389;51.578;5.456;2023-02-28T01:20:17;103016.66;;;-3.00;100.00
58622;BME280;44389;51.578;5.456;2023-02-28T01:22:42;103014.31;;;-3.13;100.00
58622;BME280;44389;51.578;5.456;2023-02-28T01:25:08;103017.56;;;-3.07;100.00
58622;BME280;44389;51.578;5.456;2023-02-28T01:27:34;103015.94;;;-2.92;100.00
58622;BME280;44389;51.578;5.456;2023-02-28T01:29:59;103021.72;;;-3.00;100.00
58622;BME280;44389;51.578;5.456;2023-02-28T01:32:24;103015.25;;;-2.98;100.00
58622;BME280;44389;51.578;5.456;2023-02-28T01:34:50;103026.97;;;-2.91;100.00
58622;BME280;44389;51.578;5.456;2023-02-28T01:37:15;103026.94;;;-3.06;100.00
58622;BME280;44389;51.578;5.456;2023-02-28T01:39:40;103023.81;;;-3.18;100.00
58622;BME280;44389;51.578;5.456;2023-02-28T01:42:09;103026.03;;;-3.06;100.00
58622;BME280;44389;51.578;5.456;2023-02-28T01:47:18;103013.94;;;-3.16;100.00
58622;BME280;44389;51.578;5.456;2023-02-28T01:49:44;103007.63;;;-3.12;100.00
58622;BME280;44389;51.578;5.456;2023-02-28T01:52:10;103007.25;;;-3.30;100.00
58622;BME280;44389;51.578;5.456;2023-02-28T01:54:42;103003.25;;;-3.28;100.00
58622;BME280;44389;51.578;5.456;2023-02-28T01:57:14;102993.91;;;-3.22;100.00
58622;BME280;44389;51.578;5.456;2023-02-28T01:59:46;102994.44;;;-3.24;100.00
58622;BME280;44389;51.578;5.456;2023-02-28T02:02:17;103003.09;;;-3.29;100.00
58622;BME280;44389;51.578;5.456;2023-02-28T02:04:48;103001.66;;;-3.20;100.00
58622;BME280;44389;51.578;5.456;2023-02-28T02:07:16;102997.84;;;-3.38;100.00
58622;BME280;44389;51.578;5.456;2023-02-28T02:09:41;102996.25;;;-3.23;100.00
58622;BME280;44389;51.578;5.456;2023-02-28T02:14:57;102991.03;;;-3.18;100.00
58622;BME280;44389;51.578;5.456;2023-02-28T02:17:34;102991.97;;;-3.17;100.00
58622;BME280;44389;51.578;5.456;2023-02-28T02:32:01;102984.03;;;-2.84;100.00
58622;BME280;44389;51.578;5.456;2023-02-28T02:37:14;102984.06;;;-2.70;100.00
58622;BME280;44389;51.578;5.456;2023-02-28T02:39:48;102987.66;;;-2.68;100.00
58622;BME280;44389;51.578;5.456;2023-02-28T02:43:11;102985.16;;;-2.60;100.00
58622;BME280;44389;51.578;5.456;2023-02-28T02:45:34;102985.50;;;-2.50;100.00
58622;BME280;44389;51.578;5.456;2023-02-28T02:48:07;102980.47;;;-2.50;100.00
58622;BME280;44389;51.578;5.456;2023-02-28T02:50:39;102976.13;;;-2.44;100.00
58622;BME280;44389;51.578;5.456;2023-02-28T02:53:08;102982.25;;;-2.35;100.00
58622;BME280;44389;51.578;5.456;2023-02-28T02:55:37;102983.66;;;-2.29;100.00
58622;BME280;44389;51.578;5.456;2023-02-28T02:58:07;102979.34;;;-2.30;100.00
58622;BME280;44389;51.578;5.456;2023-02-28T03:00:38;102983.50;;;-2.31;100.00
58622;BME280;44389;51.578;5.456;2023-02-28T03:03:07;102987.63;;;-2.24;100.00
58622;BME280;44389;51.578;5.456;2023-02-28T03:05:41;102981.88;;;-2.23;100.00
58622;BME280;44389;51.578;5.456;2023-02-28T03:08:07;102985.81;;;-2.25;100.00
58622;BME280;44389;51.578;5.456;2023-02-28T03:10:36;102983.28;;;-2.18;100.00
58622;BME280;44389;51.578;5.456;2023-02-28T03:16:09;102986.38;;;-2.21;100.00
58622;BME280;44389;51.578;5.456;2023-02-28T03:19:11;102981.28;;;-2.13;100.00
58622;BME280;44389;51.578;5.456;2023-02-28T03:21:53;102978.22;;;-2.11;100.00
58622;BME280;44389;51.578;5.456;2023-02-28T03:24:34;102977.09;;;-1.99;100.00
58622;BME280;44389;51.578;5.456;2023-02-28T03:27:17;102979.63;;;-1.99;100.00
58622;BME280;44389;51.578;5.456;2023-02-28T03:29:51;102980.91;;;-2.09;100.00
58622;BME280;44389;51.578;5.456;2023-02-28T03:32:24;102975.13;;;-2.08;100.00
58622;BME280;44389;51.578;5.456;2023-02-28T03:35:02;102974.41;;;-2.00;100.00
58622;BME280;44389;51.578;5.456;2023-02-28T03:37:32;102977.06;;;-1.91;100.00
58622;BME280;44389;51.578;5.456;2023-02-28T03:40:13;102979.59;;;-1.91;100.00
58622;BME280;44389;51.578;5.456;2023-02-28T03:42:42;102987.53;;;-1.88;100.00
58622;BME280;44389;51.578;5.456;2023-02-28T03:45:16;102986.06;;;-1.79;100.00
58622;BME280;44389;51.578;5.456;2023-02-28T03:47:49;102988.53;;;-1.72;99.51
58622;BME280;44389;51.578;5.456;2023-02-28T03:50:27;102987.97;;;-1.69;99.34
58622;BME280;44389;51.578;5.456;2023-02-28T03:53:27;102987.25;;;-1.61;99.49
58622;BME280;44389;51.578;5.456;2023-02-28T03:55:59;102987.97;;;-1.62;100.00
58622;BME280;44389;51.578;5.456;2023-02-28T03:58:32;102981.63;;;-1.58;99.57
58622;BME280;44389;51.578;5.456;2023-02-28T04:01:15;102987.19;;;-1.54;99.97
58622;BME280;44389;51.578;5.456;2023-02-28T04:03:41;102984.47;;;-1.48;99.30
58622;BME280;44389;51.578;5.456;2023-02-28T04:06:08;102980.84;;;-1.50;99.59
58622;BME280;44389;51.578;5.456;2023-02-28T04:08:38;102979.03;;;-1.44;98.98
58622;BME280;44389;51.578;5.456;2023-02-28T04:11:08;102971.44;;;-1.44;99.10
58622;BME280;44389;51.578;5.456;2023-02-28T04:13:40;102975.00;;;-1.35;98.95
58622;BME280;44389;51.578;5.456;2023-02-28T04:16:08;102979.72;;;-1.38;99.02
58622;BME280;44389;51.578;5.456;2023-02-28T04:18:38;102974.81;;;-1.36;99.13
58622;BME280;44389;51.578;5.456;2023-02-28T04:21:04;102982.75;;;-1.33;98.81
58622;BME280;44389;51.578;5.456;2023-02-28T04:23:30;102977.50;;;-1.35;98.25
58622;BME280;44389;51.578;5.456;2023-02-28T04:25:55;102987.06;;;-1.32;98.78
58622;BME280;44389;51.578;5.456;2023-02-28T04:28:21;102986.91;;;-1.34;99.20
58622;BME280;44389;51.578;5.456;2023-02-28T04:30:46;102982.94;;;-1.31;98.47
58622;BME280;44389;51.578;5.456;2023-02-28T04:33:11;102988.00;;;-1.31;99.04
58622;BME280;44389;51.578;5.456;2023-02-28T04:35:36;102988.00;;;-1.31;99.54
58622;BME280;44389;51.578;5.456;2023-02-28T04:38:02;102986.19;;;-1.33;99.10
58622;BME280;44389;51.578;5.456;2023-02-28T04:40:27;102992.50;;;-1.29;99.76
58622;BME280;44389;51.578;5.456;2023-02-28T04:42:52;102987.06;;;-1.32;99.44
58622;BME280;44389;51.578;5.456;2023-02-28T04:45:17;102989.44;;;-1.34;99.47
58622;BME280;44389;51.578;5.456;2023-02-28T04:47:43;102986.53;;;-1.29;98.81
58622;BME280;44389;51.578;5.456;2023-02-28T04:50:08;102993.72;;;-1.25;99.78
58622;BME280;44389;51.578;5.456;2023-02-28T04:52:34;102993.38;;;-1.28;99.22
58622;BME280;44389;51.578;5.456;2023-02-28T04:54:59;102994.00;;;-1.15;98.40
58622;BME280;44389;51.578;5.456;2023-02-28T04:57:25;102996.81;;;-1.28;99.45
58622;BME280;44389;51.578;5.456;2023-02-28T04:59:50;102995.66;;;-1.16;99.43
58622;BME280;44389;51.578;5.456;2023-02-28T05:02:15;102997.38;;;-1.30;98.90
58622;BME280;44389;51.578;5.456;2023-02-28T05:04:40;103007.16;;;-1.34;99.24
58622;BME280;44389;51.578;5.456;2023-02-28T05:07:06;103004.63;;;-1.34;99.53
58622;BME280;44389;51.578;5.456;2023-02-28T05:09:31;102999.22;;;-1.37;99.61
58622;BME280;44389;51.578;5.456;2023-02-28T05:11:57;103000.66;;;-1.39;99.55
58622;BME280;44389;51.578;5.456;2023-02-28T05:14:23;102992.00;;;-1.41;99.57
58622;BME280;44389;51.578;5.456;2023-02-28T05:16:48;102997.81;;;-1.42;99.96
58622;BME280;44389;51.578;5.456;2023-02-28T05:19:13;103003.59;;;-1.43;100.00
58622;BME280;44389;51.578;5.456;2023-02-28T05:21:50;103016.41;;;-1.41;100.00
58622;BME280;44389;51.578;5.456;2023-02-28T05:24:16;103006.13;;;-1.43;100.00
58622;BME280;44389;51.578;5.456;2023-02-28T05:26:48;103006.50;;;-1.47;100.00
58622;BME280;44389;51.578;5.456;2023-02-28T05:29:15;103006.84;;;-1.44;100.00
58622;BME280;44389;51.578;5.456;2023-02-28T05:31:40;103005.03;;;-1.45;100.00
58622;BME280;44389;51.578;5.456;2023-02-28T05:34:05;103004.16;;;-1.45;100.00
58622;BME280;44389;51.578;5.456;2023-02-28T05:36:31;103004.69;;;-1.48;100.00
58622;BME280;44389;51.578;5.456;2023-02-28T05:38:57;103010.31;;;-1.51;100.00
58622;BME280;44389;51.578;5.456;2023-02-28T05:41:22;103003.44;;;-1.52;100.00
58622;BME280;44389;51.578;5.456;2023-02-28T05:43:48;103014.09;;;-1.47;99.67
58622;BME280;44389;51.578;5.456;2023-02-28T05:46:13;103009.94;;;-1.54;100.00
58622;BME280;44389;51.578;5.456;2023-02-28T05:48:40;103005.66;;;-1.55;99.73
58622;BME280;44389;51.578;5.456;2023-02-28T05:51:06;103016.66;;;-1.54;100.00
58622;BME280;44389;51.578;5.456;2023-02-28T05:53:33;103015.22;;;-1.52;99.45
58622;BME280;44389;51.578;5.456;2023-02-28T05:55:58;103002.19;;;-1.55;99.53
58622;BME280;44389;51.578;5.456;2023-02-28T05:58:24;103014.13;;;-1.61;99.44
58622;BME280;44389;51.578;5.456;2023-02-28T06:01:00;103014.50;;;-1.66;100.00
58622;BME280;44389;51.578;5.456;2023-02-28T06:03:26;103017.44;;;-1.70;100.00
58622;BME280;44389;51.578;5.456;2023-02-28T06:05:52;103021.03;;;-1.68;100.00
58622;BME280;44389;51.578;5.456;2023-02-28T06:08:17;103014.34;;;-1.67;100.00
58622;BME280;44389;51.578;5.456;2023-02-28T06:10:43;103026.31;;;-1.80;100.00
58622;BME280;44389;51.578;5.456;2023-02-28T06:13:09;103021.66;;;-1.85;100.00
58622;BME280;44389;51.578;5.456;2023-02-28T06:15:34;103025.06;;;-1.84;100.00
58622;BME280;44389;51.578;5.456;2023-02-28T06:17:59;103025.25;;;-1.83;100.00
58622;BME280;44389;51.578;5.456;2023-02-28T06:20:26;103037.72;;;-1.84;100.00
58622;BME280;44389;51.578;5.456;2023-02-28T06:22:55;103036.44;;;-1.80;100.00
58622;BME280;44389;51.578;5.456;2023-02-28T06:25:21;103031.56;;;-1.79;100.00
58622;BME280;44389;51.578;5.456;2023-02-28T06:27:46;103031.88;;;-1.76;100.00
58622;BME280;44389;51.578;5.456;2023-02-28T06:30:13;103040.72;;;-1.72;100.00
58622;BME280;44389;51.578;5.456;2023-02-28T06:32:38;103046.34;;;-1.68;100.00
58622;BME280;44389;51.578;5.456;2023-02-28T06:35:04;103047.75;;;-1.62;100.00
58622;BME280;44389;51.578;5.456;2023-02-28T06:37:32;103029.69;;;-1.58;100.00
58622;BME280;44389;51.578;5.456;2023-02-28T06:39:58;103020.97;;;-1.53;100.00
58622;BME280;44389;51.578;5.456;2023-02-28T06:42:24;103030.53;;;-1.51;100.00
58622;BME280;44389;51.578;5.456;2023-02-28T06:44:57;103042.97;;;-1.45;100.00
58622;BME280;44389;51.578;5.456;2023-02-28T06:47:24;103037.53;;;-1.41;100.00
58622;BME280;44389;51.578;5.456;2023-02-28T06:49:50;103036.09;;;-1.39;100.00
58622;BME280;44389;51.578;5.456;2023-02-28T06:52:15;103038.44;;;-1.40;100.00
58622;BME280;44389;51.578;5.456;2023-02-28T06:54:41;103028.88;;;-1.43;100.00
58622;BME280;44389;51.578;5.456;2023-02-28T06:57:06;103041.91;;;-1.47;100.00
58622;BME280;44389;51.578;5.456;2023-02-28T06:59:32;103045.16;;;-1.48;100.00
58622;BME280;44389;51.578;5.456;2023-02-28T07:01:57;103050.56;;;-1.45;100.00
58622;BME280;44389;51.578;5.456;2023-02-28T07:04:23;103057.03;;;-1.40;100.00
58622;BME280;44389;51.578;5.456;2023-02-28T07:06:48;103043.69;;;-1.39;100.00
58622;BME280;44389;51.578;5.456;2023-02-28T07:09:13;103039.88;;;-1.42;100.00
58622;BME280;44389;51.578;5.456;2023-02-28T07:11:39;103042.94;;;-1.38;99.41
58622;BME280;44389;51.578;5.456;2023-02-28T07:14:06;103049.69;;;-1.45;99.27
58622;BME280;44389;51.578;5.456;2023-02-28T07:16:32;103049.13;;;-1.43;99.13
58622;BME280;44389;51.578;5.456;2023-02-28T07:18:57;103048.97;;;-1.52;98.91
58622;BME280;44389;51.578;5.456;2023-02-28T07:21:22;103061.78;;;-1.50;98.68
58622;BME280;44389;51.578;5.456;2023-02-28T07:23:48;103059.78;;;-1.45;96.46
58622;BME280;44389;51.578;5.456;2023-02-28T07:26:15;103066.09;;;-1.42;95.72
58622;BME280;44389;51.578;5.456;2023-02-28T07:28:42;103068.41;;;-1.29;94.81
58622;BME280;44389;51.578;5.456;2023-02-28T07:31:09;103073.25;;;-1.23;92.95
58622;BME280;44389;51.578;5.456;2023-02-28T07:33:35;103068.16;;;-1.16;92.98
58622;BME280;44389;51.578;5.456;2023-02-28T07:36:05;103075.53;;;-1.10;92.04
58622;BME280;44389;51.578;5.456;2023-02-28T07:38:33;103072.44;;;-1.08;91.48
58622;BME280;44389;51.578;5.456;2023-02-28T07:40:59;103071.00;;;-1.06;90.45
58622;BME280;44389;51.578;5.456;2023-02-28T07:43:24;103072.03;;;-1.04;90.87
58622;BME280;44389;51.578;5.456;2023-02-28T07:45:49;103081.06;;;-0.98;91.40
58622;BME280;44389;51.578;5.456;2023-02-28T07:48:15;103078.84;;;-0.88;91.62
58622;BME280;44389;51.578;5.456;2023-02-28T07:50:40;103074.97;;;-0.77;90.12
58622;BME280;44389;51.578;5.456;2023-02-28T07:53:05;103079.78;;;-0.64;90.16
58622;BME280;44389;51.578;5.456;2023-02-28T07:55:31;103072.78;;;-0.51;89.22
58622;BME280;44389;51.578;5.456;2023-02-28T07:57:57;103084.06;;;-0.33;89.20
58622;BME280;44389;51.578;5.456;2023-02-28T08:00:23;103081.16;;;-0.13;87.92
58622;BME280;44389;51.578;5.456;2023-02-28T08:02:49;103080.94;;;0.09;86.87
58622;BME280;44389;51.578;5.456;2023-02-28T08:05:14;103081.13;;;0.26;85.13
58622;BME280;44389;51.578;5.456;2023-02-28T08:07:40;103082.28;;;0.53;84.10
58622;BME280;44389;51.578;5.456;2023-02-28T08:10:07;103080.69;;;0.78;81.49
58622;BME280;44389;51.578;5.456;2023-02-28T08:12:33;103080.84;;;0.96;80.46
58622;BME280;44389;51.578;5.456;2023-02-28T08:14:59;103082.72;;;1.14;80.01
58622;BME280;44389;51.578;5.456;2023-02-28T08:17:24;103082.41;;;1.36;74.38
58622;BME280;44389;51.578;5.456;2023-02-28T08:19:49;103090.94;;;1.37;74.27
58622;BME280;44389;51.578;5.456;2023-02-28T08:22:15;103088.28;;;1.44;72.57
58622;BME280;44389;51.578;5.456;2023-02-28T08:24:41;103086.06;;;1.47;71.76
58622;BME280;44389;51.578;5.456;2023-02-28T08:27:07;103084.72;;;1.51;71.19
58622;BME280;44389;51.578;5.456;2023-02-28T08:29:32;103083.22;;;1.44;67.44
58622;BME280;44389;51.578;5.456;2023-02-28T08:31:58;103079.28;;;1.39;67.69
58622;BME280;44389;51.578;5.456;2023-02-28T08:34:23;103088.22;;;1.35;66.48
58622;BME280;44389;51.578;5.456;2023-02-28T08:36:49;103084.06;;;1.36;65.45
58622;BME280;44389;51.578;5.456;2023-02-28T08:39:14;103079.66;;;1.51;66.20
58622;BME280;44389;51.578;5.456;2023-02-28T08:41:42;103087.63;;;1.62;62.53
58622;BME280;44389;51.578;5.456;2023-02-28T08:44:07;103077.59;;;1.55;61.55
58622;BME280;44389;51.578;5.456;2023-02-28T08:46:32;103071.97;;;1.67;59.50
58622;BME280;44389;51.578;5.456;2023-02-28T08:48:58;103073.13;;;1.61;60.38
58622;BME280;44389;51.578;5.456;2023-02-28T08:51:25;103074.75;;;1.61;60.04
58622;BME280;44389;51.578;5.456;2023-02-28T08:53:55;103075.97;;;1.64;60.68
58622;BME280;44389;51.578;5.456;2023-02-28T08:56:21;103074.41;;;1.83;60.98
58622;BME280;44389;51.578;5.456;2023-02-28T08:58:48;103083.72;;;2.00;59.95
58622;BME280;44389;51.578;5.456;2023-02-28T09:01:19;103077.34;;;2.12;58.11
58622;BME280;44389;51.578;5.456;2023-02-28T09:03:46;103083.66;;;2.33;58.79
58622;BME280;44389;51.578;5.456;2023-02-28T09:06:13;103081.97;;;2.34;56.46
58622;BME280;44389;51.578;5.456;2023-02-28T09:08:39;103075.44;;;2.53;58.53
58622;BME280;44389;51.578;5.456;2023-02-28T09:11:04;103083.81;;;2.43;57.30
58622;BME280;44389;51.578;5.456;2023-02-28T09:13:30;103085.00;;;2.47;55.08
58622;BME280;44389;51.578;5.456;2023-02-28T09:15:58;103086.06;;;2.40;54.01
58622;BME280;44389;51.578;5.456;2023-02-28T09:18:23;103080.53;;;2.53;52.76
58622;BME280;44389;51.578;5.456;2023-02-28T09:20:49;103078.88;;;2.54;49.26
58622;BME280;44389;51.578;5.456;2023-02-28T09:23:15;103078.28;;;2.74;49.61
58622;BME280;44389;51.578;5.456;2023-02-28T09:25:53;103080.38;;;2.78;50.14
58622;BME280;44389;51.578;5.456;2023-02-28T09:28:19;103074.66;;;2.98;49.26
58622;BME280;44389;51.578;5.456;2023-02-28T09:30:45;103076.44;;;3.17;48.75
58622;BME280;44389;51.578;5.456;2023-02-28T09:33:11;103077.16;;;3.33;47.23
58622;BME280;44389;51.578;5.456;2023-02-28T09:35:37;103078.19;;;3.26;45.77
58622;BME280;44389;51.578;5.456;2023-02-28T09:38:03;103082.75;;;3.57;47.19
58622;BME280;44389;51.578;5.456;2023-02-28T09:40:28;103079.38;;;3.75;46.24
58622;BME280;44389;51.578;5.456;2023-02-28T09:42:56;103073.22;;;4.01;45.21
58622;BME280;44389;51.578;5.456;2023-02-28T09:47:48;103083.47;;;4.48;43.66
58622;BME280;44389;51.578;5.456;2023-02-28T09:50:48;103081.66;;;4.47;42.27
58622;BME280;44389;51.578;5.456;2023-02-28T09:53:21;103079.66;;;5.02;44.24
58622;BME280;44389;51.578;5.456;2023-02-28T09:55:58;103073.31;;;5.07;40.89
58622;BME280;44389;51.578;5.456;2023-02-28T10:01:25;103068.69;;;5.03;41.39
58622;BME280;44389;51.578;5.456;2023-02-28T10:04:00;103067.84;;;5.52;41.96
58622;BME280;44389;51.578;5.456;2023-02-28T10:06:35;103067.00;;;5.33;39.27
58622;BME280;44389;51.578;5.456;2023-02-28T10:09:07;103065.31;;;5.83;39.91
58622;BME280;44389;51.578;5.456;2023-02-28T10:11:35;103058.31;;;5.91;38.71
58622;BME280;44389;51.578;5.456;2023-02-28T10:14:06;103063.81;;;5.96;39.40
58622;BME280;44389;51.578;5.456;2023-02-28T10:16:55;103058.44;;;6.34;40.72
58622;BME280;44389;51.578;5.456;2023-02-28T10:19:33;103054.41;;;6.79;39.24
58622;BME280;44389;51.578;5.456;2023-02-28T10:22:04;103059.78;;;7.14;36.05
58622;BME280;44389;51.578;5.456;2023-02-28T10:24:35;103047.13;;;6.73;34.31
58622;BME280;44389;51.578;5.456;2023-02-28T10:27:21;103055.88;;;6.44;35.43
58622;BME280;44389;51.578;5.456;2023-02-28T10:29:49;103055.38;;;5.76;34.48
58622;BME280;44389;51.578;5.456;2023-02-28T10:32:44;103061.03;;;6.23;36.11
58622;BME280;44389;51.578;5.456;2023-02-28T10:37:40;103051.03;;;7.22;36.07
58622;BME280;44389;51.578;5.456;2023-02-28T10:43:04;103047.03;;;8.04;36.47
58622;BME280;44389;51.578;5.456;2023-02-28T10:45:34;103033.38;;;7.37;33.19
58622;BME280;44389;51.578;5.456;2023-02-28T10:53:27;103041.53;;;7.21;33.62
58622;BME280;44389;51.578;5.456;2023-02-28T11:07:16;103031.06;;;8.66;32.83
58622;BME280;44389;51.578;5.456;2023-02-28T11:09:45;103037.63;;;8.86;32.11
58622;BME280;44389;51.578;5.456;2023-02-28T11:12:48;103034.38;;;8.77;31.48
58622;BME280;44389;51.578;5.456;2023-02-28T11:15:26;103030.03;;;7.61;31.10
58622;BME280;44389;51.578;5.456;2023-02-28T11:17:56;103025.13;;;6.97;32.14
58622;BME280;44389;51.578;5.456;2023-02-28T11:20:25;103024.38;;;7.77;33.81
58622;BME280;44389;51.578;5.456;2023-02-28T11:22:52;103018.97;;;7.96;32.99
58622;BME280;44389;51.578;5.456;2023-02-28T11:25:24;103014.22;;;8.24;33.08
58622;BME280;44389;51.578;5.456;2023-02-28T11:27:56;103014.41;;;8.61;32.25
58622;BME280;44389;51.578;5.456;2023-02-28T11:30:42;103013.06;;;9.15;34.09
58622;BME280;44389;51.578;5.456;2023-02-28T11:36:15;103001.47;;;8.97;32.15
58622;BME280;44389;51.578;5.456;2023-02-28T11:38:42;103007.31;;;8.94;31.85
58622;BME280;44389;51.578;5.456;2023-02-28T11:41:29;103011.84;;;9.10;33.77
58622;BME280;44389;51.578;5.456;2023-02-28T11:47:40;103001.78;;;9.89;32.24
58622;BME280;44389;51.578;5.456;2023-02-28T11:55:32;102994.69;;;9.22;32.81
58622;BME280;44389;51.578;5.456;2023-02-28T12:06:27;102980.94;;;9.47;30.90
58622;BME280;44389;51.578;5.456;2023-02-28T12:09:20;102989.41;;;8.96;32.54
58622;BME280;44389;51.578;5.456;2023-02-28T12:12:06;102988.50;;;9.58;33.03
58622;BME280;44389;51.578;5.456;2023-02-28T12:15:16;102978.44;;;9.61;31.95
58622;BME280;44389;51.578;5.456;2023-02-28T12:26:00;102972.31;;;9.72;32.53
58622;BME280;44389;51.578;5.456;2023-02-28T12:28:32;102969.16;;;9.26;30.57
58622;BME280;44389;51.578;5.456;2023-02-28T12:31:08;102968.91;;;9.09;33.89
58622;BME280;44389;51.578;5.456;2023-02-28T12:33:40;102965.78;;;9.77;30.71
58622;BME280;44389;51.578;5.456;2023-02-28T12:36:13;102957.31;;;9.92;30.81
58622;BME280;44389;51.578;5.456;2023-02-28T12:39:01;102961.63;;;9.41;31.00
58622;BME280;44389;51.578;5.456;2023-02-28T12:41:47;102964.34;;;8.93;32.88
58622;BME280;44389;51.578;5.456;2023-02-28T12:44:26;102969.75;;;9.21;31.44
58622;BME280;44389;51.578;5.456;2023-02-28T12:46:55;102956.00;;;9.21;31.11
58622;BME280;44389;51.578;5.456;2023-02-28T12:49:29;102948.53;;;9.12;31.41
58622;BME280;44389;51.578;5.456;2023-02-28T12:51:57;102951.69;;;9.33;30.91
58622;BME280;44389;51.578;5.456;2023-02-28T12:54:46;102949.53;;;9.65;32.59
58622;BME280;44389;51.578;5.456;2023-02-28T12:57:38;102944.63;;;10.08;32.53
58622;BME280;44389;51.578;5.456;2023-02-28T13:06:09;102929.72;;;10.84;31.77
58622;BME280;44389;51.578;5.456;2023-02-28T13:09:08;102934.06;;;10.99;30.99
58622;BME280;44389;51.578;5.456;2023-02-28T13:11:49;102922.06;;;10.31;31.32
58622;BME280;44389;51.578;5.456;2023-02-28T13:14:36;102916.53;;;10.38;32.19
58622;BME280;44389;51.578;5.456;2023-02-28T13:19:57;102915.50;;;10.49;30.73
58622;BME280;44389;51.578;5.456;2023-02-28T13:22:44;102911.88;;;10.46;31.78
58622;BME280;44389;51.578;5.456;2023-02-28T13:27:51;102909.75;;;10.13;29.98
58622;BME280;44389;51.578;5.456;2023-02-28T13:38:43;102906.88;;;9.68;29.42
58622;BME280;44389;51.578;5.456;2023-02-28T13:44:11;102910.16;;;10.19;31.67
58622;BME280;44389;51.578;5.456;2023-02-28T13:49:25;102903.59;;;9.98;31.18
58622;BME280;44389;51.578;5.456;2023-02-28T13:57:59;102899.72;;;10.31;32.42
58622;BME280;44389;51.578;5.456;2023-02-28T14:00:43;102891.09;;;9.64;30.44
58622;BME280;44389;51.578;5.456;2023-02-28T14:11:36;102895.09;;;9.08;30.88
58622;BME280;44389;51.578;5.456;2023-02-28T14:14:04;102888.06;;;9.05;31.59
58622;BME280;44389;51.578;5.456;2023-02-28T14:16:41;102887.97;;;8.67;32.23
58622;BME280;44389;51.578;5.456;2023-02-28T14:19:20;102892.25;;;8.31;33.12
58622;BME280;44389;51.578;5.456;2023-02-28T14:22:06;102883.56;;;7.93;34.23
58622;BME280;44389;51.578;5.456;2023-02-28T14:37:38;102884.44;;;5.41;39.61
58622;BME280;44389;51.578;5.456;2023-02-28T14:40:13;102879.59;;;5.23;39.42
58622;BME280;44389;51.578;5.456;2023-02-28T14:42:56;102884.16;;;5.07;40.34
58622;BME280;44389;51.578;5.456;2023-02-28T14:45:22;102884.91;;;4.95;39.99
58622;BME280;44389;51.578;5.456;2023-02-28T14:47:49;102885.81;;;4.86;41.11
58622;BME280;44389;51.578;5.456;2023-02-28T14:50:33;102882.31;;;4.75;40.43
58622;BME280;44389;51.578;5.456;2023-02-28T14:52:59;102877.41;;;4.57;41.11
58622;BME280;44389;51.578;5.456;2023-02-28T14:55:31;102875.59;;;4.46;41.58
58622;BME280;44389;51.578;5.456;2023-02-28T14:58:21;102868.69;;;4.45;41.99
58622;BME280;44389;51.578;5.456;2023-02-28T15:00:49;102879.59;;;4.34;42.32
58622;BME280;44389;51.578;5.456;2023-02-28T15:06:01;102870.88;;;4.21;42.12
58622;BME280;44389;51.578;5.456;2023-02-28T15:08:30;102869.03;;;4.10;41.71
58622;BME280;44389;51.578;5.456;2023-02-28T15:11:14;102873.88;;;4.07;42.71
58622;BME280;44389;51.578;5.456;2023-02-28T15:14:00;102881.53;;;4.07;43.14
58622;BME280;44389;51.578;5.456;2023-02-28T15:19:04;102871.28;;;3.97;43.32
58622;BME280;44389;51.578;5.456;2023-02-28T15:21:36;102879.69;;;3.95;43.84